Time;durP1;ratioP1;P1;durP2;ratioP2;P2;SDS_P1;SDS_P2;PMS_P1;PMS_P2;Temp;Humidity;BMP_temperature;BMP_pressure;BME280_temperature;BME280_humidity;BME280_pressure;Samples;Min_cycle;Max_cycle;Signal;HPM_P1;HPM_P2
2022/05/06 00:00:13;;;;;;;;;;;;;;;;;;4918426;29;20010;-87
2022/05/06 00:02:39;;;;;;;;;;;;;;;;;;4918336;29;19923;-86
2022/05/06 00:05:06;;;;;;;;;;;;;;;;;;4917086;29;19923;-87
2022/05/06 00:07:31;;;;;;;;;;;;;;;;;;4918369;29;20009;-87
2022/05/06 00:09:57;;;;;;;;;;;;;;;;;;4916848;29;20010;-86
2022/05/06 00:12:22;;;;;;;;;;;;;;;;;;4918269;29;19919;-87
2022/05/06 00:14:48;;;;;;;;;;;;;;;;;;4918111;29;20292;-87
2022/05/06 00:17:14;;;;;;;;;;;;;;;;;;4918161;29;19967;-87
2022/05/06 00:19:41;;;;;;;;;;;;;;;;;;4916753;29;20033;-89
2022/05/06 00:22:07;;;;;;;;;;;;;;;;;;4916787;29;19977;-87
2022/05/06 00:24:34;;;;;;;;;;;;;;;;;;4916665;29;19967;-88
2022/05/06 00:26:59;;;;;;;;;;;;;;;;;;4917842;29;19919;-90
2022/05/06 00:29:25;;;;;;;;;;;;;;;;;;4917892;29;19930;-88
2022/05/06 00:31:51;;;;;;;;;;;;;;;;;;4917662;29;19919;-86
2022/05/06 00:34:16;;;;;;;;;;;;;;;;;;4916316;29;19962;-88
2022/05/06 00:36:42;;;;;;;;;;;;;;;;;;4917667;29;19938;-87
2022/05/06 00:39:08;;;;;;;;;;;;;;;;;;4916527;29;19922;-86
2022/05/06 00:41:34;;;;;;;;;;;;;;;;;;4916426;29;20375;-87
2022/05/06 00:43:59;;;;;;;;;;;;;;;;;;4917332;29;19923;-86
2022/05/06 00:46:25;;;;;;;;;;;;;;;;;;4917568;29;19919;-88
2022/05/06 00:48:50;;;;;;;;;;;;;;;;;;4916123;29;19919;-87
2022/05/06 00:51:18;;;;;;;;;;;;;;;;;;4915649;29;19919;-85
2022/05/06 00:53:44;;;;;;;;;;;;;;;;;;4917349;29;19926;-87
2022/05/06 00:56:10;;;;;;;;;;;;;;;;;;4916054;29;20021;-87
2022/05/06 00:58:36;;;;;;;;;;;;;;;;;;4917308;29;19919;-87
2022/05/06 01:01:02;;;;;;;;;;;;;;;;;;4917409;29;20394;-87
2022/05/06 01:03:28;;;;;;;;;;;;;;;;;;4916098;29;20336;-87
2022/05/06 01:05:54;;;;;;;;;;;;;;;;;;4917338;29;19946;-87
2022/05/06 01:08:19;;;;;;;;;;;;;;;;;;4917168;29;20052;-85
2022/05/06 01:10:45;;;;;;;;;;;;;;;;;;4916841;29;19933;-87
2022/05/06 01:13:11;;;;;;;;;;;;;;;;;;4917046;29;20307;-86
2022/05/06 01:15:38;;;;;;;;;;;;;;;;;;4917132;29;19919;-86
2022/05/06 01:18:03;;;;;;;;;;;;;;;;;;4917010;29;20391;-87
2022/05/06 01:20:29;;;;;;;;;;;;;;;;;;4917025;29;19980;-86
2022/05/06 01:22:59;;;;;;;;;;;;;;;;;;4916982;29;19966;-86
2022/05/06 01:25:25;;;;;;;;;;;;;;;;;;4917042;29;19970;-85
2022/05/06 01:28:00;;;;;;;;;;;;;;;;;;4917012;29;20646;-86
2022/05/06 01:30:35;;;;;;;;;;;;;;;;;;4917027;29;20371;-88
2022/05/06 01:33:02;;;;;;;;;;;;;;;;;;4916821;29;19926;-86
2022/05/06 01:35:28;;;;;;;;;;;;;;;;;;4915611;29;19938;-87
2022/05/06 01:37:56;;;;;;;;;;;;;;;;;;4916895;29;19919;-87
2022/05/06 01:40:23;;;;;;;;;;;;;;;;;;4916902;29;19950;-87
2022/05/06 01:42:50;;;;;;;;;;;;;;;;;;4915411;29;20303;-88
2022/05/06 01:45:16;;;;;;;;;;;;;;;;;;4916799;29;19969;-86
2022/05/06 01:47:42;;;;;;;;;;;;;;;;;;4915759;29;19919;-87
2022/05/06 01:50:12;;;;;;;;;;;;;;;;;;4916783;29;19930;-85
2022/05/06 01:52:39;;;;;;;;;;;;;;;;;;4915346;29;20380;-87
2022/05/06 01:55:06;;;;;;;;;;;;;;;;;;4916785;29;19923;-88
2022/05/06 01:57:31;;;;;;;;;;;;;;;;;;4916638;29;19919;-85
2022/05/06 01:59:56;;;;;;;;;;;;;;;;;;4915375;29;20295;-84
2022/05/06 02:02:22;;;;;;;;;;;;;;;;;;4918269;29;20356;-86
2022/05/06 02:07:31;;;;;;;;;;;;;;;;;;4920518;29;19926;-86
2022/05/06 02:09:57;;;;;;;;;;;;;;;;;;4918990;29;19923;-86
2022/05/06 02:12:22;;;;;;;;;;;;;;;;;;4920233;29;19920;-88
2022/05/06 02:14:48;;;;;;;;;;;;;;;;;;4920071;29;20004;-85
2022/05/06 02:17:13;;;;;;;;;;;;;;;;;;4918951;29;19966;-87
2022/05/06 02:19:39;;;;;;;;;;;;;;;;;;4920369;29;19925;-86
2022/05/06 02:22:04;;;;;;;;;;;;;;;;;;4918939;29;20276;-87
2022/05/06 02:24:30;;;;;;;;;;;;;;;;;;4920225;29;19923;-86
2022/05/06 02:26:55;;;;;;;;;;;;;;;;;;4919946;29;19919;-86
2022/05/06 02:29:22;;;;;;;;;;;;;;;;;;4922393;29;20276;-85
2022/05/06 02:34:31;;;;;;;;;;;;;;;;;;4923713;29;20394;-86
2022/05/06 02:36:57;;;;;;;;;;;;;;;;;;4933082;29;19927;-85
2022/05/06 02:39:22;;;;;;;;;;;;;;;;;;4943101;29;19927;-86
2022/05/06 02:41:48;;;;;;;;;;;;;;;;;;4943070;29;19938;-85
2022/05/06 02:44:13;;;;;;;;;;;;;;;;;;4942156;29;19927;-86
2022/05/06 02:46:39;;;;;;;;;;;;;;;;;;4925076;29;19923;-85
2022/05/06 02:49:04;;;;;;;;;;;;;;;;;;4919898;29;19929;-86
2022/05/06 02:51:30;;;;;;;;;;;;;;;;;;4919657;29;19926;-86
2022/05/06 02:53:56;;;;;;;;;;;;;;;;;;4918428;29;19987;-87
2022/05/06 02:56:22;;;;;;;;;;;;;;;;;;4918661;29;20320;-86
2022/05/06 02:58:47;;;;;;;;;;;;;;;;;;4919539;29;19930;-87
2022/05/06 03:01:12;;;;;;;;;;;;;;;;;;4919643;29;19919;-87
2022/05/06 03:03:38;;;;;;;;;;;;;;;;;;4919463;29;20009;-86
2022/05/06 03:06:03;;;;;;;;;;;;;;;;;;4918210;29;19962;-87
2022/05/06 03:08:29;;;;;;;;;;;;;;;;;;4919429;29;20015;-87
2022/05/06 03:10:54;;;;;;;;;;;;;;;;;;4918039;29;20371;-86
2022/05/06 03:13:20;;;;;;;;;;;;;;;;;;4918693;29;19919;-86
2022/05/06 03:15:45;;;;;;;;;;;;;;;;;;4919252;29;20431;-88
2022/05/06 03:18:11;;;;;;;;;;;;;;;;;;4919094;29;19919;-86
2022/05/06 03:20:38;;;;;;;;;;;;;;;;;;4917938;29;19926;-87
2022/05/06 03:23:04;;;;;;;;;;;;;;;;;;4919110;29;20563;-85
2022/05/06 03:25:30;;;;;;;;;;;;;;;;;;4919136;29;19947;-86
2022/05/06 03:28:07;;;;;;;;;;;;;;;;;;4919001;29;19923;-85
2022/05/06 03:30:39;;;;;;;;;;;;;;;;;;4919117;29;19919;-86
2022/05/06 03:33:08;;;;;;;;;;;;;;;;;;4919092;29;19960;-86
2022/05/06 03:35:34;;;;;;;;;;;;;;;;;;4918914;29;19930;-86
2022/05/06 03:37:59;;;;;;;;;;;;;;;;;;4918902;29;19920;-85
2022/05/06 03:40:24;;;;;;;;;;;;;;;;;;4918861;29;20018;-86
2022/05/06 03:42:50;;;;;;;;;;;;;;;;;;4918555;29;19974;-85
2022/05/06 03:45:15;;;;;;;;;;;;;;;;;;4918660;29;19923;-85
2022/05/06 03:47:41;;;;;;;;;;;;;;;;;;4918572;29;19966;-86
2022/05/06 03:52:50;;;;;;;;;;;;;;;;;;4918747;29;19966;-87
2022/05/06 03:55:16;;;;;;;;;;;;;;;;;;4917053;29;19923;-85
2022/05/06 03:57:42;;;;;;;;;;;;;;;;;;4917165;29;19923;-84
2022/05/06 04:00:09;;;;;;;;;;;;;;;;;;4918228;29;20268;-87
2022/05/06 04:02:38;;;;;;;;;;;;;;;;;;4917091;29;19923;-87
2022/05/06 04:05:04;;;;;;;;;;;;;;;;;;4918250;29;19919;-86
2022/05/06 04:07:29;;;;;;;;;;;;;;;;;;4918237;29;19974;-85
2022/05/06 04:09:54;;;;;;;;;;;;;;;;;;4918137;29;19977;-85
2022/05/06 04:12:21;;;;;;;;;;;;;;;;;;4918157;29;19923;-85
2022/05/06 04:14:46;;;;;;;;;;;;;;;;;;4918101;29;19915;-87
2022/05/06 04:17:12;;;;;;;;;;;;;;;;;;4918391;29;19923;-89
2022/05/06 04:23:28;;;;;;;;;;;;;;;;;;4918538;29;20402;-90
2022/05/06 04:25:11;;;;;;;;;;;;;;;;;;4917249;29;20383;-86
2022/05/06 04:27:37;;;;;;;;;;;;;;;;;;4917926;29;20014;-87
2022/05/06 04:30:03;;;;;;;;;;;;;;;;;;4917868;29;20337;-88
2022/05/06 04:32:28;;;;;;;;;;;;;;;;;;4917940;29;19923;-88
2022/05/06 04:34:53;;;;;;;;;;;;;;;;;;4916427;29;20014;-89
2022/05/06 04:37:19;;;;;;;;;;;;;;;;;;4916531;29;19923;-85
2022/05/06 04:39:44;;;;;;;;;;;;;;;;;;4917778;29;19934;-88
2022/05/06 04:42:10;;;;;;;;;;;;;;;;;;4916408;29;19923;-83
2022/05/06 04:44:36;;;;;;;;;;;;;;;;;;4917760;29;19919;-86
2022/05/06 04:47:01;;;;;;;;;;;;;;;;;;4916540;29;20431;-87
2022/05/06 04:49:27;;;;;;;;;;;;;;;;;;4918052;29;19966;-81
2022/05/06 04:51:52;;;;;;;;;;;;;;;;;;4917612;29;19923;-85
2022/05/06 04:54:17;;;;;;;;;;;;;;;;;;4917661;29;19919;-86
2022/05/06 04:56:43;;;;;;;;;;;;;;;;;;4909222;29;19923;-83
2022/05/06 04:59:08;;;;;;;;;;;;;;;;;;4900290;29;19975;-83
2022/05/06 05:01:34;;;;;;;;;;;;;;;;;;4898933;29;19954;-91
2022/05/06 05:04:00;;;;;;;;;;;;;;;;;;4899043;29;19927;-84
2022/05/06 05:06:25;;;;;;;;;;;;;;;;;;4899838;29;19919;-87
2022/05/06 05:08:51;;;;;;;;;;;;;;;;;;4899351;29;19923;-87
2022/05/06 05:11:16;;;;;;;;;;;;;;;;;;4904146;29;20376;-86
2022/05/06 05:13:42;;;;;;;;;;;;;;;;;;4918531;29;19919;-84
2022/05/06 05:16:08;;;;;;;;;;;;;;;;;;4917589;29;19919;-88
2022/05/06 05:18:34;;;;;;;;;;;;;;;;;;4918983;29;20275;-91
2022/05/06 05:21:00;;;;;;;;;;;;;;;;;;4918247;29;19970;-88
2022/05/06 05:23:26;;;;;;;;;;;;;;;;;;4920881;29;19919;-82
2022/05/06 05:25:51;;;;;;;;;;;;;;;;;;4920152;29;19963;-91
2022/05/06 05:28:17;;;;;;;;;;;;;;;;;;4917753;29;20336;-85
2022/05/06 05:30:42;;;;;;;;;;;;;;;;;;4919688;29;20352;-86
2022/05/06 05:33:09;;;;;;;;;;;;;;;;;;4919268;29;19919;-84
2022/05/06 05:35:35;;;;;;;;;;;;;;;;;;4918787;29;20030;-83
2022/05/06 05:38:01;;;;;;;;;;;;;;;;;;4918055;29;19966;-90
2022/05/06 05:40:26;;;;;;;;;;;;;;;;;;4920942;29;20391;-85
2022/05/06 05:42:52;;;;;;;;;;;;;;;;;;4918601;29;19927;-84
2022/05/06 05:48:19;;;;;;;;;;;;;;;;;;4919275;29;19926;-86
2022/05/06 05:50:45;;;;;;;;;;;;;;;;;;4918236;29;19923;-86
2022/05/06 05:53:10;;;;;;;;;;;;;;;;;;4919087;29;20014;-90
2022/05/06 05:55:36;;;;;;;;;;;;;;;;;;4921801;29;19919;-86
2022/05/06 05:58:02;;;;;;;;;;;;;;;;;;4918972;29;19919;-85
2022/05/06 06:00:28;;;;;;;;;;;;;;;;;;4918578;29;19919;-89
2022/05/06 06:02:53;;;;;;;;;;;;;;;;;;4918515;29;20014;-90
2022/05/06 06:05:19;;;;;;;;;;;;;;;;;;4917724;29;20382;-80
2022/05/06 06:07:44;;;;;;;;;;;;;;;;;;4917262;29;19970;-86
2022/05/06 06:10:10;;;;;;;;;;;;;;;;;;4916830;29;19930;-85
2022/05/06 06:12:35;;;;;;;;;;;;;;;;;;4916940;29;20017;-82
2022/05/06 06:15:01;;;;;;;;;;;;;;;;;;4917319;29;19974;-86
2022/05/06 06:17:27;;;;;;;;;;;;;;;;;;4916752;29;19919;-87
2022/05/06 06:19:52;;;;;;;;;;;;;;;;;;4916561;29;20402;-82
2022/05/06 06:22:18;;;;;;;;;;;;;;;;;;4915058;29;19923;-83
2022/05/06 06:24:43;;;;;;;;;;;;;;;;;;4916282;29;20399;-83
2022/05/06 06:27:09;;;;;;;;;;;;;;;;;;4898427;29;19954;-82
2022/05/06 06:29:35;;;;;;;;;;;;;;;;;;4898838;29;20273;-83
2022/05/06 06:32:01;;;;;;;;;;;;;;;;;;4897319;29;19920;-83
2022/05/06 06:34:27;;;;;;;;;;;;;;;;;;4897611;29;20404;-83
2022/05/06 06:36:52;;;;;;;;;;;;;;;;;;4897545;29;19970;-86
2022/05/06 06:39:18;;;;;;;;;;;;;;;;;;4912572;29;20309;-86
2022/05/06 06:41:43;;;;;;;;;;;;;;;;;;4897651;29;19919;-89
2022/05/06 06:44:09;;;;;;;;;;;;;;;;;;4898843;29;19924;-83
2022/05/06 06:46:37;;;;;;;;;;;;;;;;;;4912331;29;19923;-86
2022/05/06 06:49:03;;;;;;;;;;;;;;;;;;4899541;29;19955;-89
2022/05/06 06:51:28;;;;;;;;;;;;;;;;;;4901489;29;20010;-91
2022/05/06 06:53:54;;;;;;;;;;;;;;;;;;4900993;29;19920;-89
2022/05/06 06:56:20;;;;;;;;;;;;;;;;;;4900999;29;20392;-87
2022/05/06 06:58:45;;;;;;;;;;;;;;;;;;4918188;29;19930;-90
2022/05/06 07:01:11;;;;;;;;;;;;;;;;;;4918787;29;19919;-87
2022/05/06 07:03:37;;;;;;;;;;;;;;;;;;4919516;29;19919;-88
2022/05/06 07:14:14;;;;;;;;;;;;;;;;;;4919580;29;20369;-88
2022/05/06 07:16:40;;;;;;;;;;;;;;;;;;4919311;29;19919;-82
2022/05/06 07:19:05;;;;;;;;;;;;;;;;;;4920182;29;20007;-88
2022/05/06 07:21:31;;;;;;;;;;;;;;;;;;4919308;29;19919;-87
2022/05/06 07:23:56;;;;;;;;;;;;;;;;;;4918464;29;19919;-88
2022/05/06 07:26:22;;;;;;;;;;;;;;;;;;4920821;29;19919;-87
2022/05/06 07:28:47;;;;;;;;;;;;;;;;;;4920447;29;19919;-89
2022/05/06 07:31:13;;;;;;;;;;;;;;;;;;4919362;29;20379;-84
2022/05/06 07:33:38;;;;;;;;;;;;;;;;;;4919153;29;20387;-87
2022/05/06 07:36:03;;;;;;;;;;;;;;;;;;4918710;29;19942;-87
2022/05/06 07:38:30;;;;;;;;;;;;;;;;;;4920463;29;19967;-86
2022/05/06 07:40:56;;;;;;;;;;;;;;;;;;4920438;29;19938;-86
2022/05/06 07:43:23;;;;;;;;;;;;;;;;;;4919141;29;19923;-90
2022/05/06 07:45:49;;;;;;;;;;;;;;;;;;4921012;29;20372;-89
2022/05/06 07:48:14;;;;;;;;;;;;;;;;;;4919770;29;19939;-89
2022/05/06 07:50:44;;;;;;;;;;;;;;;;;;4920468;29;20368;-85
2022/05/06 07:53:13;;;;;;;;;;;;;;;;;;4917546;29;19920;-86
2022/05/06 07:55:39;;;;;;;;;;;;;;;;;;4919403;29;19967;-87
2022/05/06 07:58:05;;;;;;;;;;;;;;;;;;4919100;29;19927;-83
2022/05/06 08:00:33;;;;;;;;;;;;;;;;;;4923579;29;19919;-86
2022/05/06 08:06:05;;;;;;;;;;;;;;;;;;4920495;29;19929;-89
2022/05/06 08:08:31;;;;;;;;;;;;;;;;;;4920183;29;20014;-90
2022/05/06 08:10:56;;;;;;;;;;;;;;;;;;4915326;29;20311;-90
2022/05/06 08:13:24;;;;;;;;;;;;;;;;;;4910507;29;19919;-92
2022/05/06 08:15:57;;;;;;;;;;;;;;;;;;4906163;29;20344;-89
2022/05/06 08:18:23;;;;;;;;;;;;;;;;;;4902709;29;19920;-91
2022/05/06 08:20:49;;;;;;;;;;;;;;;;;;4901420;29;19923;-89
2022/05/06 08:23:14;;;;;;;;;;;;;;;;;;4901238;29;20334;-88
2022/05/06 08:25:40;;;;;;;;;;;;;;;;;;4900501;29;19980;-90
2022/05/06 08:28:07;;;;;;;;;;;;;;;;;;4902622;29;20368;-91
2022/05/06 08:30:35;;;;;;;;;;;;;;;;;;4901416;29;19920;-91
2022/05/06 08:33:01;;;;;;;;;;;;;;;;;;4900945;29;19963;-91
2022/05/06 08:35:26;;;;;;;;;;;;;;;;;;4901143;29;19927;-89
2022/05/06 08:37:52;;;;;;;;;;;;;;;;;;4901786;29;19923;-89
2022/05/06 08:40:21;;;;;;;;;;;;;;;;;;4914632;29;19947;-91
2022/05/06 08:42:47;;;;;;;;;;;;;;;;;;4940426;29;19945;-87
2022/05/06 08:50:54;;;;;;;;;;;;;;;;;;4961745;29;19931;-90
2022/05/06 08:53:21;;;;;;;;;;;;;;;;;;4961284;29;19918;-89
2022/05/06 08:55:48;;;;;;;;;;;;;;;;;;4960885;29;19906;-90
2022/05/06 08:58:17;;;;;;;;;;;;;;;;;;4941154;29;19924;-89
2022/05/06 09:00:42;;;;;;;;;;;;;;;;;;4941012;29;19923;-91
2022/05/06 09:03:08;;;;;;;;;;;;;;;;;;4941421;29;19970;-89
2022/05/06 09:05:46;;;;;;;;;;;;;;;;;;4928897;29;19923;-90
2022/05/06 09:08:12;;;;;;;;;;;;;;;;;;4916999;29;19959;-84
2022/05/06 09:10:38;;;;;;;;;;;;;;;;;;4899978;29;19981;-90
2022/05/06 09:13:03;;;;;;;;;;;;;;;;;;4897239;29;20292;-88
2022/05/06 09:18:23;;;;;;;;;;;;;;;;;;4899663;29;20039;-91
2022/05/06 09:20:51;;;;;;;;;;;;;;;;;;4897104;29;19975;-82
2022/05/06 09:23:22;;;;;;;;;;;;;;;;;;4903913;29;19947;-84
2022/05/06 09:25:52;;;;;;;;;;;;;;;;;;4915946;29;19923;-85
2022/05/06 09:28:20;;;;;;;;;;;;;;;;;;4914760;29;20368;-89
2022/05/06 09:31:06;;;;;;;;;;;;;;;;;;4913397;29;20332;-87
2022/05/06 09:33:36;;;;;;;;;;;;;;;;;;4898031;29;20295;-87
2022/05/06 09:36:20;;;;;;;;;;;;;;;;;;4897952;29;19927;-86
2022/05/06 09:39:01;;;;;;;;;;;;;;;;;;4896968;29;20314;-87
2022/05/06 09:41:27;;;;;;;;;;;;;;;;;;4898672;29;19971;-89
2022/05/06 09:43:59;;;;;;;;;;;;;;;;;;4898086;29;20340;-86
2022/05/06 09:46:41;;;;;;;;;;;;;;;;;;4897850;29;20487;-87
2022/05/06 09:49:06;;;;;;;;;;;;;;;;;;4898286;29;19920;-84
2022/05/06 09:51:35;;;;;;;;;;;;;;;;;;4902141;29;19967;-84
2022/05/06 09:54:02;;;;;;;;;;;;;;;;;;4896803;29;20389;-84
2022/05/06 09:56:27;;;;;;;;;;;;;;;;;;4897942;29;20002;-86
2022/05/06 09:58:54;;;;;;;;;;;;;;;;;;4897178;29;19978;-85
2022/05/06 10:01:19;;;;;;;;;;;;;;;;;;4898116;29;19926;-86
2022/05/06 10:03:45;;;;;;;;;;;;;;;;;;4897920;29;19927;-85
2022/05/06 10:06:10;;;;;;;;;;;;;;;;;;4897770;29;19978;-86
2022/05/06 10:08:37;;;;;;;;;;;;;;;;;;4897771;29;19919;-84
2022/05/06 10:11:04;;;;;;;;;;;;;;;;;;4897914;29;20361;-87
2022/05/06 10:13:30;;;;;;;;;;;;;;;;;;4897824;29;19920;-87
2022/05/06 10:15:56;;;;;;;;;;;;;;;;;;4897731;29;19931;-89
2022/05/06 10:18:32;;;;;;;;;;;;;;;;;;4896364;29;19923;-88
2022/05/06 10:20:58;;;;;;;;;;;;;;;;;;4896352;29;19930;-87
2022/05/06 10:23:41;;;;;;;;;;;;;;;;;;4916108;29;20299;-87
2022/05/06 10:26:06;;;;;;;;;;;;;;;;;;4919256;29;19923;-87
2022/05/06 10:34:23;;;;;;;;;;;;;;;;;;4918915;29;19926;-88
2022/05/06 10:36:49;;;;;;;;;;;;;;;;;;4919729;29;19919;-84
2022/05/06 10:39:25;;;;;;;;;;;;;;;;;;4920195;29;19919;-82
2022/05/06 10:42:22;;;;;;;;;;;;;;;;;;4920006;29;20363;-85
2022/05/06 10:44:49;;;;;;;;;;;;;;;;;;4903741;29;20018;-84
2022/05/06 10:47:20;;;;;;;;;;;;;;;;;;4900789;29;19926;-84
2022/05/06 10:49:51;;;;;;;;;;;;;;;;;;4900835;29;20379;-84
2022/05/06 10:52:18;;;;;;;;;;;;;;;;;;4900467;29;19946;-80
2022/05/06 10:54:43;;;;;;;;;;;;;;;;;;4899305;29;20303;-83
2022/05/06 10:57:09;;;;;;;;;;;;;;;;;;4900454;29;19927;-85
2022/05/06 10:59:50;;;;;;;;;;;;;;;;;;4899662;29;19927;-84
2022/05/06 11:02:16;;;;;;;;;;;;;;;;;;4899171;29;19942;-82
2022/05/06 11:05:04;;;;;;;;;;;;;;;;;;4900470;29;19916;-82
2022/05/06 11:07:31;;;;;;;;;;;;;;;;;;4899253;29;19920;-82
2022/05/06 11:09:56;;;;;;;;;;;;;;;;;;4900289;29;19920;-81
2022/05/06 11:12:34;;;;;;;;;;;;;;;;;;4914804;29;20406;-87
2022/05/06 11:15:03;;;;;;;;;;;;;;;;;;4900324;29;19932;-84
2022/05/06 11:17:31;;;;;;;;;;;;;;;;;;4899040;29;19926;-84
2022/05/06 11:19:57;;;;;;;;;;;;;;;;;;4899058;29;20011;-83
2022/05/06 11:22:23;;;;;;;;;;;;;;;;;;4900233;29;19970;-85
2022/05/06 11:24:49;;;;;;;;;;;;;;;;;;4899288;29;19916;-83
2022/05/06 11:27:19;;;;;;;;;;;;;;;;;;4900235;29;19924;-83
2022/05/06 11:30:00;;;;;;;;;;;;;;;;;;4900100;29;19926;-80
2022/05/06 11:32:29;;;;;;;;;;;;;;;;;;4900071;29;20018;-83
2022/05/06 11:34:56;;;;;;;;;;;;;;;;;;4914498;29;19931;-83
2022/05/06 11:37:25;;;;;;;;;;;;;;;;;;4900525;29;19955;-84
2022/05/06 11:39:51;;;;;;;;;;;;;;;;;;4899042;29;20014;-86
2022/05/06 11:42:23;;;;;;;;;;;;;;;;;;4899779;29;19978;-85
2022/05/06 11:47:42;;;;;;;;;;;;;;;;;;4900254;29;19927;-86
2022/05/06 11:50:08;;;;;;;;;;;;;;;;;;4915066;29;19924;-84
2022/05/06 11:52:34;;;;;;;;;;;;;;;;;;4899854;29;19920;-84
2022/05/06 11:55:00;;;;;;;;;;;;;;;;;;4899820;29;20046;-85
2022/05/06 11:57:26;;;;;;;;;;;;;;;;;;4899744;29;19953;-82
2022/05/06 11:59:51;;;;;;;;;;;;;;;;;;4899776;29;19919;-88
2022/05/06 12:02:17;;;;;;;;;;;;;;;;;;4900163;29;20372;-85
2022/05/06 12:04:43;;;;;;;;;;;;;;;;;;4899886;29;20015;-91
2022/05/06 12:07:09;;;;;;;;;;;;;;;;;;4900409;29;20428;-89
2022/05/06 12:09:44;;;;;;;;;;;;;;;;;;4899835;29;19923;-85
2022/05/06 12:12:13;;;;;;;;;;;;;;;;;;4898392;29;19919;-87
2022/05/06 12:14:39;;;;;;;;;;;;;;;;;;4899901;29;19927;-87
2022/05/06 12:17:12;;;;;;;;;;;;;;;;;;4899587;29;20387;-86
2022/05/06 12:19:39;;;;;;;;;;;;;;;;;;4898123;29;20377;-84
2022/05/06 12:22:12;;;;;;;;;;;;;;;;;;4899629;29;19942;-82
2022/05/06 12:24:42;;;;;;;;;;;;;;;;;;4899614;29;19920;-82
2022/05/06 12:27:08;;;;;;;;;;;;;;;;;;4899472;29;19919;-88
2022/05/06 12:29:37;;;;;;;;;;;;;;;;;;4899633;29;19919;-86
2022/05/06 12:32:06;;;;;;;;;;;;;;;;;;4899762;29;19920;-87
2022/05/06 12:34:32;;;;;;;;;;;;;;;;;;4898339;29;19924;-83
2022/05/06 12:37:16;;;;;;;;;;;;;;;;;;4899127;29;19942;-91
2022/05/06 12:39:44;;;;;;;;;;;;;;;;;;4899759;29;19923;-84
2022/05/06 12:42:13;;;;;;;;;;;;;;;;;;4899073;29;19927;-85
2022/05/06 12:44:39;;;;;;;;;;;;;;;;;;4899055;29;19926;-88
2022/05/06 12:50:11;;;;;;;;;;;;;;;;;;4898796;29;19966;-88
2022/05/06 12:52:37;;;;;;;;;;;;;;;;;;4898794;29;19924;-86
2022/05/06 12:55:05;;;;;;;;;;;;;;;;;;4898275;29;20215;-88
2022/05/06 12:57:31;;;;;;;;;;;;;;;;;;4898979;29;19973;-86
2022/05/06 12:59:56;;;;;;;;;;;;;;;;;;4897501;29;19951;-81
2022/05/06 13:02:22;;;;;;;;;;;;;;;;;;4913047;29;20426;-87
2022/05/06 13:04:47;;;;;;;;;;;;;;;;;;4913155;29;20289;-85
2022/05/06 13:07:13;;;;;;;;;;;;;;;;;;4899331;29;20006;-84
2022/05/06 13:09:39;;;;;;;;;;;;;;;;;;4899604;29;20026;-85
2022/05/06 13:12:04;;;;;;;;;;;;;;;;;;4903496;29;19919;-83
2022/05/06 13:14:30;;;;;;;;;;;;;;;;;;4917698;29;19923;-86
2022/05/06 13:16:55;;;;;;;;;;;;;;;;;;4917400;29;20010;-80
2022/05/06 13:19:21;;;;;;;;;;;;;;;;;;4917144;29;20391;-88
2022/05/06 13:21:46;;;;;;;;;;;;;;;;;;4917358;29;19919;-83
2022/05/06 13:24:12;;;;;;;;;;;;;;;;;;4917409;29;19919;-87
2022/05/06 13:26:38;;;;;;;;;;;;;;;;;;4917716;29;19919;-88
2022/05/06 13:29:04;;;;;;;;;;;;;;;;;;4917561;29;19927;-85
2022/05/06 13:31:30;;;;;;;;;;;;;;;;;;4917798;29;20066;-86
2022/05/06 13:33:56;;;;;;;;;;;;;;;;;;4917537;29;20022;-84
2022/05/06 13:36:21;;;;;;;;;;;;;;;;;;4917567;29;19979;-85
2022/05/06 13:38:47;;;;;;;;;;;;;;;;;;4917374;29;19924;-81
2022/05/06 13:41:13;;;;;;;;;;;;;;;;;;4917423;29;19921;-91
2022/05/06 13:43:39;;;;;;;;;;;;;;;;;;4918170;29;19923;-84
2022/05/06 13:46:05;;;;;;;;;;;;;;;;;;4918077;29;20017;-84
2022/05/06 13:48:30;;;;;;;;;;;;;;;;;;4917867;29;20534;-83
2022/05/06 13:50:56;;;;;;;;;;;;;;;;;;4917493;29;20368;-81
2022/05/06 13:53:22;;;;;;;;;;;;;;;;;;4916250;29;19978;-86
2022/05/06 14:01:16;;;;;;;;;;;;;;;;;;4921063;29;19926;-85
2022/05/06 14:03:41;;;;;;;;;;;;;;;;;;4921570;29;20011;-83
2022/05/06 14:06:07;;;;;;;;;;;;;;;;;;4921676;29;20311;-84
2022/05/06 14:08:32;;;;;;;;;;;;;;;;;;4920043;29;19919;-83
2022/05/06 14:10:58;;;;;;;;;;;;;;;;;;4921104;29;20010;-83
2022/05/06 14:13:23;;;;;;;;;;;;;;;;;;4921484;29;19919;-82
2022/05/06 14:15:49;;;;;;;;;;;;;;;;;;4922176;29;19919;-88
2022/05/06 14:18:14;;;;;;;;;;;;;;;;;;4920652;29;19919;-82
2022/05/06 14:20:40;;;;;;;;;;;;;;;;;;4920832;29;19926;-80
2022/05/06 14:23:05;;;;;;;;;;;;;;;;;;4920425;29;20443;-85
2022/05/06 14:25:30;;;;;;;;;;;;;;;;;;4920463;29;20269;-80
2022/05/06 14:27:56;;;;;;;;;;;;;;;;;;4920408;29;20283;-86
2022/05/06 14:30:21;;;;;;;;;;;;;;;;;;4918737;29;19923;-87
2022/05/06 14:32:47;;;;;;;;;;;;;;;;;;4920210;29;20265;-81
2022/05/06 14:35:16;;;;;;;;;;;;;;;;;;4913773;29;19915;-83
2022/05/06 14:37:45;;;;;;;;;;;;;;;;;;4901472;29;19919;-79
2022/05/06 14:40:10;;;;;;;;;;;;;;;;;;4901169;29;19980;-80
2022/05/06 14:42:36;;;;;;;;;;;;;;;;;;4901119;29;19927;-79
2022/05/06 14:45:02;;;;;;;;;;;;;;;;;;4901567;29;20345;-81
2022/05/06 14:47:27;;;;;;;;;;;;;;;;;;4901858;29;19916;-89
2022/05/06 14:49:52;;;;;;;;;;;;;;;;;;4901474;29;20329;-80
2022/05/06 14:52:19;;;;;;;;;;;;;;;;;;4901264;29;20345;-81
2022/05/06 14:54:44;;;;;;;;;;;;;;;;;;4899542;29;20295;-82
2022/05/06 14:57:11;;;;;;;;;;;;;;;;;;4901438;29;19927;-82
2022/05/06 14:59:36;;;;;;;;;;;;;;;;;;4901940;29;19966;-83
2022/05/06 15:02:02;;;;;;;;;;;;;;;;;;4902043;29;19970;-84
2022/05/06 15:04:27;;;;;;;;;;;;;;;;;;4900106;29;19966;-83
2022/05/06 15:06:53;;;;;;;;;;;;;;;;;;4900914;29;20276;-82
2022/05/06 15:09:22;;;;;;;;;;;;;;;;;;4900168;29;20444;-80
2022/05/06 15:11:47;;;;;;;;;;;;;;;;;;4904303;29;19993;-83
2022/05/06 15:14:13;;;;;;;;;;;;;;;;;;4904243;29;19927;-81
2022/05/06 15:16:38;;;;;;;;;;;;;;;;;;4907249;29;19919;-81
2022/05/06 15:19:25;;;;;;;;;;;;;;;;;;4902934;29;19920;-81
2022/05/06 15:21:51;;;;;;;;;;;;;;;;;;4900819;29;19925;-81
2022/05/06 15:24:21;;;;;;;;;;;;;;;;;;4901101;29;19923;-83
2022/05/06 15:26:47;;;;;;;;;;;;;;;;;;4899180;29;20447;-81
2022/05/06 15:29:12;;;;;;;;;;;;;;;;;;4900223;29;20010;-81
2022/05/06 15:31:37;;;;;;;;;;;;;;;;;;4900443;29;20380;-86
2022/05/06 15:34:04;;;;;;;;;;;;;;;;;;4900430;29;19916;-88
2022/05/06 15:36:29;;;;;;;;;;;;;;;;;;4900124;29;19948;-80
2022/05/06 15:38:55;;;;;;;;;;;;;;;;;;4900443;29;19924;-80
2022/05/06 15:41:21;;;;;;;;;;;;;;;;;;4900352;29;19958;-81
2022/05/06 15:43:47;;;;;;;;;;;;;;;;;;4899933;29;20448;-79
2022/05/06 15:46:12;;;;;;;;;;;;;;;;;;4900025;29;19920;-79
2022/05/06 15:48:42;;;;;;;;;;;;;;;;;;4899836;29;20409;-81
2022/05/06 15:51:08;;;;;;;;;;;;;;;;;;4898839;29;20009;-87
2022/05/06 15:53:33;;;;;;;;;;;;;;;;;;4899963;29;20023;-79
2022/05/06 15:55:59;;;;;;;;;;;;;;;;;;4898715;29;20015;-80
2022/05/06 15:58:24;;;;;;;;;;;;;;;;;;4900040;29;19916;-81
2022/05/06 16:00:50;;;;;;;;;;;;;;;;;;4899606;29;20368;-81
2022/05/06 16:03:15;;;;;;;;;;;;;;;;;;4899675;29;20324;-83
2022/05/06 16:05:41;;;;;;;;;;;;;;;;;;4900078;29;19915;-87
2022/05/06 16:08:06;;;;;;;;;;;;;;;;;;4900371;29;19923;-80
2022/05/06 16:10:32;;;;;;;;;;;;;;;;;;4900413;29;20278;-80
2022/05/06 16:12:58;;;;;;;;;;;;;;;;;;4899706;29;19943;-87
2022/05/06 16:15:25;;;;;;;;;;;;;;;;;;4898414;29;19979;-81
2022/05/06 16:17:55;;;;;;;;;;;;;;;;;;4899917;29;19946;-80
2022/05/06 16:20:21;;;;;;;;;;;;;;;;;;4914115;29;19920;-83
2022/05/06 16:22:51;;;;;;;;;;;;;;;;;;4899363;29;20359;-80
2022/05/06 16:25:16;;;;;;;;;;;;;;;;;;4899203;29;20373;-82
2022/05/06 16:27:42;;;;;;;;;;;;;;;;;;4899925;29;19951;-89
2022/05/06 16:30:08;;;;;;;;;;;;;;;;;;4899384;29;19926;-91
2022/05/06 16:32:34;;;;;;;;;;;;;;;;;;4899952;29;19919;-84
2022/05/06 16:37:45;;;;;;;;;;;;;;;;;;4899446;29;19926;-81
2022/05/06 16:40:14;;;;;;;;;;;;;;;;;;4899007;29;20379;-81
2022/05/06 16:42:45;;;;;;;;;;;;;;;;;;4899264;29;20283;-84
2022/05/06 16:45:11;;;;;;;;;;;;;;;;;;4899251;29;20361;-81
2022/05/06 16:47:37;;;;;;;;;;;;;;;;;;4899316;29;19926;-86
2022/05/06 16:50:03;;;;;;;;;;;;;;;;;;4898925;29;20375;-81
2022/05/06 16:52:29;;;;;;;;;;;;;;;;;;4898955;29;19920;-80
2022/05/06 16:54:55;;;;;;;;;;;;;;;;;;4898663;29;19919;-82
2022/05/06 16:57:21;;;;;;;;;;;;;;;;;;4898785;29;19920;-82
2022/05/06 16:59:46;;;;;;;;;;;;;;;;;;4898534;29;19927;-83
2022/05/06 17:02:11;;;;;;;;;;;;;;;;;;4898514;29;19926;-81
2022/05/06 17:04:38;;;;;;;;;;;;;;;;;;4898740;29;19942;-81
2022/05/06 17:07:04;;;;;;;;;;;;;;;;;;4897615;29;19924;-81
2022/05/06 17:09:29;;;;;;;;;;;;;;;;;;4897447;29;19923;-82
2022/05/06 17:11:55;;;;;;;;;;;;;;;;;;4900448;29;20508;-82
2022/05/06 17:14:21;;;;;;;;;;;;;;;;;;4917337;29;19931;-80
2022/05/06 17:16:46;;;;;;;;;;;;;;;;;;4917595;29;20392;-82
2022/05/06 17:19:12;;;;;;;;;;;;;;;;;;4917556;29;19926;-84
2022/05/06 17:21:37;;;;;;;;;;;;;;;;;;4917321;29;19919;-83
2022/05/06 17:24:03;;;;;;;;;;;;;;;;;;4917234;29;20415;-85
2022/05/06 17:26:29;;;;;;;;;;;;;;;;;;4917169;29;20340;-80
2022/05/06 17:28:54;;;;;;;;;;;;;;;;;;4916925;29;19926;-81
2022/05/06 17:31:21;;;;;;;;;;;;;;;;;;4916797;29;20036;-80
2022/05/06 17:33:46;;;;;;;;;;;;;;;;;;4917164;29;20287;-82
2022/05/06 17:36:12;;;;;;;;;;;;;;;;;;4916955;29;20010;-81